sensor_id;sensor_type;location;lat;lon;timestamp;P1;durP1;ratioP1;P2;durP2;ratioP2
21697;SDS011;11010;49.548;11.926;2023-04-23T00:01:17;7.78;;;2.80;;
21697;SDS011;11010;49.548;11.926;2023-04-23T00:03:46;7.40;;;2.45;;
21697;SDS011;11010;49.548;11.926;2023-04-23T00:06:15;8.18;;;2.40;;
21697;SDS011;11010;49.548;11.926;2023-04-23T00:08:43;7.28;;;2.42;;
21697;SDS011;11010;49.548;11.926;2023-04-23T00:11:10;6.97;;;2.30;;
21697;SDS011;11010;49.548;11.926;2023-04-23T00:13:38;8.48;;;2.78;;
21697;SDS011;11010;49.548;11.926;2023-04-23T00:16:05;7.38;;;2.55;;
21697;SDS011;11010;49.548;11.926;2023-04-23T00:18:33;7.30;;;2.38;;
21697;SDS011;11010;49.548;11.926;2023-04-23T00:21:00;7.20;;;2.60;;
21697;SDS011;11010;49.548;11.926;2023-04-23T00:23:28;7.85;;;2.38;;
21697;SDS011;11010;49.548;11.926;2023-04-23T00:25:55;7.88;;;2.40;;
21697;SDS011;11010;49.548;11.926;2023-04-23T00:28:22;7.18;;;2.30;;
21697;SDS011;11010;49.548;11.926;2023-04-23T00:30:49;6.93;;;2.50;;
21697;SDS011;11010;49.548;11.926;2023-04-23T00:33:16;8.40;;;2.65;;
21697;SDS011;11010;49.548;11.926;2023-04-23T00:35:43;7.28;;;2.30;;
21697;SDS011;11010;49.548;11.926;2023-04-23T00:38:11;7.82;;;2.55;;
21697;SDS011;11010;49.548;11.926;2023-04-23T00:40:38;6.75;;;2.33;;
21697;SDS011;11010;49.548;11.926;2023-04-23T00:43:06;7.53;;;2.53;;
21697;SDS011;11010;49.548;11.926;2023-04-23T00:45:33;7.18;;;2.60;;
21697;SDS011;11010;49.548;11.926;2023-04-23T00:48:01;8.35;;;2.65;;
21697;SDS011;11010;49.548;11.926;2023-04-23T00:50:29;7.93;;;2.47;;
21697;SDS011;11010;49.548;11.926;2023-04-23T00:52:57;8.48;;;2.45;;
21697;SDS011;11010;49.548;11.926;2023-04-23T00:55:24;7.68;;;2.55;;
21697;SDS011;11010;49.548;11.926;2023-04-23T00:57:51;8.27;;;2.55;;
21697;SDS011;11010;49.548;11.926;2023-04-23T01:00:19;7.35;;;2.88;;
21697;SDS011;11010;49.548;11.926;2023-04-23T01:02:47;7.63;;;2.80;;
21697;SDS011;11010;49.548;11.926;2023-04-23T01:05:16;7.43;;;2.63;;
21697;SDS011;11010;49.548;11.926;2023-04-23T01:07:45;7.30;;;2.30;;
21697;SDS011;11010;49.548;11.926;2023-04-23T01:10:13;8.05;;;2.33;;
21697;SDS011;11010;49.548;11.926;2023-04-23T01:12:40;7.30;;;2.80;;
21697;SDS011;11010;49.548;11.926;2023-04-23T01:15:08;7.10;;;2.53;;
21697;SDS011;11010;49.548;11.926;2023-04-23T01:17:35;7.95;;;2.40;;
21697;SDS011;11010;49.548;11.926;2023-04-23T01:20:04;7.57;;;2.70;;
21697;SDS011;11010;49.548;11.926;2023-04-23T01:22:34;6.97;;;2.42;;
21697;SDS011;11010;49.548;11.926;2023-04-23T01:25:04;7.70;;;2.50;;
21697;SDS011;11010;49.548;11.926;2023-04-23T01:27:33;7.70;;;2.58;;
21697;SDS011;11010;49.548;11.926;2023-04-23T01:30:02;7.65;;;2.42;;
21697;SDS011;11010;49.548;11.926;2023-04-23T01:32:30;8.57;;;2.75;;
21697;SDS011;11010;49.548;11.926;2023-04-23T01:34:58;8.15;;;2.47;;
21697;SDS011;11010;49.548;11.926;2023-04-23T01:37:25;7.55;;;2.53;;
21697;SDS011;11010;49.548;11.926;2023-04-23T01:39:54;7.13;;;2.53;;
21697;SDS011;11010;49.548;11.926;2023-04-23T01:42:22;7.35;;;2.40;;
21697;SDS011;11010;49.548;11.926;2023-04-23T01:44:52;7.97;;;2.47;;
21697;SDS011;11010;49.548;11.926;2023-04-23T01:47:19;8.85;;;2.80;;
21697;SDS011;11010;49.548;11.926;2023-04-23T01:49:47;7.82;;;2.60;;
21697;SDS011;11010;49.548;11.926;2023-04-23T01:52:14;9.18;;;2.70;;
21697;SDS011;11010;49.548;11.926;2023-04-23T01:54:41;7.32;;;2.78;;
21697;SDS011;11010;49.548;11.926;2023-04-23T01:57:09;8.13;;;2.90;;
21697;SDS011;11010;49.548;11.926;2023-04-23T01:59:36;6.93;;;2.33;;
21697;SDS011;11010;49.548;11.926;2023-04-23T02:02:04;7.53;;;2.70;;
21697;SDS011;11010;49.548;11.926;2023-04-23T02:04:36;7.55;;;2.60;;
21697;SDS011;11010;49.548;11.926;2023-04-23T02:07:06;8.00;;;2.55;;
21697;SDS011;11010;49.548;11.926;2023-04-23T02:09:33;9.88;;;2.78;;
21697;SDS011;11010;49.548;11.926;2023-04-23T02:12:00;7.70;;;2.72;;
21697;SDS011;11010;49.548;11.926;2023-04-23T02:14:27;7.40;;;2.60;;
21697;SDS011;11010;49.548;11.926;2023-04-23T02:16:55;7.45;;;2.63;;
21697;SDS011;11010;49.548;11.926;2023-04-23T02:19:23;7.60;;;2.80;;
21697;SDS011;11010;49.548;11.926;2023-04-23T02:21:50;16.65;;;3.08;;
21697;SDS011;11010;49.548;11.926;2023-04-23T02:24:17;9.07;;;2.70;;
21697;SDS011;11010;49.548;11.926;2023-04-23T02:26:44;7.82;;;2.83;;
21697;SDS011;11010;49.548;11.926;2023-04-23T02:29:14;7.50;;;2.67;;
21697;SDS011;11010;49.548;11.926;2023-04-23T02:31:41;7.22;;;2.67;;
21697;SDS011;11010;49.548;11.926;2023-04-23T02:34:08;8.82;;;2.80;;
21697;SDS011;11010;49.548;11.926;2023-04-23T02:36:36;7.50;;;2.67;;
21697;SDS011;11010;49.548;11.926;2023-04-23T02:39:03;7.50;;;2.57;;
21697;SDS011;11010;49.548;11.926;2023-04-23T02:41:30;7.90;;;2.92;;
21697;SDS011;11010;49.548;11.926;2023-04-23T02:43:58;7.70;;;2.80;;
21697;SDS011;11010;49.548;11.926;2023-04-23T02:46:25;7.80;;;2.65;;
21697;SDS011;11010;49.548;11.926;2023-04-23T02:48:53;8.05;;;2.58;;
21697;SDS011;11010;49.548;11.926;2023-04-23T02:51:20;7.80;;;2.50;;
21697;SDS011;11010;49.548;11.926;2023-04-23T02:53:47;7.55;;;2.50;;
21697;SDS011;11010;49.548;11.926;2023-04-23T02:56:14;7.63;;;2.90;;
21697;SDS011;11010;49.548;11.926;2023-04-23T02:58:41;8.23;;;2.97;;
21697;SDS011;11010;49.548;11.926;2023-04-23T03:01:09;6.80;;;2.50;;
21697;SDS011;11010;49.548;11.926;2023-04-23T03:03:36;7.70;;;2.85;;
21697;SDS011;11010;49.548;11.926;2023-04-23T03:06:04;7.50;;;2.70;;
21697;SDS011;11010;49.548;11.926;2023-04-23T03:08:32;8.53;;;2.87;;
21697;SDS011;11010;49.548;11.926;2023-04-23T03:10:59;8.57;;;2.83;;
21697;SDS011;11010;49.548;11.926;2023-04-23T03:13:27;8.07;;;2.90;;
21697;SDS011;11010;49.548;11.926;2023-04-23T03:15:54;8.63;;;2.73;;
21697;SDS011;11010;49.548;11.926;2023-04-23T03:18:21;8.73;;;2.70;;
21697;SDS011;11010;49.548;11.926;2023-04-23T03:20:51;7.18;;;2.60;;
21697;SDS011;11010;49.548;11.926;2023-04-23T03:23:18;7.65;;;2.60;;
21697;SDS011;11010;49.548;11.926;2023-04-23T03:25:46;7.73;;;2.50;;
21697;SDS011;11010;49.548;11.926;2023-04-23T03:28:14;6.97;;;2.60;;
21697;SDS011;11010;49.548;11.926;2023-04-23T03:30:42;7.75;;;2.63;;
21697;SDS011;11010;49.548;11.926;2023-04-23T03:33:10;7.80;;;2.70;;
21697;SDS011;11010;49.548;11.926;2023-04-23T03:35:37;7.73;;;2.60;;
21697;SDS011;11010;49.548;11.926;2023-04-23T03:38:10;8.13;;;2.80;;
21697;SDS011;11010;49.548;11.926;2023-04-23T03:40:37;7.50;;;2.72;;
21697;SDS011;11010;49.548;11.926;2023-04-23T03:43:06;7.97;;;3.00;;
21697;SDS011;11010;49.548;11.926;2023-04-23T03:45:53;8.48;;;2.58;;
21697;SDS011;11010;49.548;11.926;2023-04-23T03:48:21;8.40;;;2.83;;
21697;SDS011;11010;49.548;11.926;2023-04-23T03:50:49;7.20;;;2.57;;
21697;SDS011;11010;49.548;11.926;2023-04-23T03:53:31;7.97;;;2.80;;
21697;SDS011;11010;49.548;11.926;2023-04-23T03:56:17;7.50;;;2.60;;
21697;SDS011;11010;49.548;11.926;2023-04-23T03:59:02;8.43;;;2.87;;
21697;SDS011;11010;49.548;11.926;2023-04-23T04:01:30;7.53;;;2.70;;
21697;SDS011;11010;49.548;11.926;2023-04-23T04:03:58;8.97;;;2.70;;
21697;SDS011;11010;49.548;11.926;2023-04-23T04:06:25;8.37;;;2.80;;
21697;SDS011;11010;49.548;11.926;2023-04-23T04:08:54;8.50;;;2.83;;
21697;SDS011;11010;49.548;11.926;2023-04-23T04:11:21;7.80;;;2.70;;
21697;SDS011;11010;49.548;11.926;2023-04-23T04:13:48;7.43;;;2.70;;
21697;SDS011;11010;49.548;11.926;2023-04-23T04:16:15;8.37;;;2.87;;
21697;SDS011;11010;49.548;11.926;2023-04-23T04:18:43;7.80;;;3.03;;
21697;SDS011;11010;49.548;11.926;2023-04-23T04:21:10;7.17;;;2.60;;
21697;SDS011;11010;49.548;11.926;2023-04-23T04:23:37;8.40;;;2.90;;
21697;SDS011;11010;49.548;11.926;2023-04-23T04:26:05;8.30;;;2.83;;
21697;SDS011;11010;49.548;11.926;2023-04-23T04:28:33;7.90;;;2.70;;
21697;SDS011;11010;49.548;11.926;2023-04-23T04:31:02;7.47;;;2.63;;
21697;SDS011;11010;49.548;11.926;2023-04-23T04:33:31;8.47;;;3.03;;
21697;SDS011;11010;49.548;11.926;2023-04-23T04:36:01;9.27;;;2.80;;
21697;SDS011;11010;49.548;11.926;2023-04-23T04:38:28;8.03;;;2.87;;
21697;SDS011;11010;49.548;11.926;2023-04-23T04:40:56;8.00;;;2.93;;
21697;SDS011;11010;49.548;11.926;2023-04-23T04:43:27;8.90;;;2.50;;
21697;SDS011;11010;49.548;11.926;2023-04-23T04:45:54;6.80;;;2.50;;
21697;SDS011;11010;49.548;11.926;2023-04-23T04:48:21;8.27;;;2.60;;
21697;SDS011;11010;49.548;11.926;2023-04-23T04:50:48;8.20;;;2.60;;
21697;SDS011;11010;49.548;11.926;2023-04-23T04:53:15;7.63;;;2.50;;
21697;SDS011;11010;49.548;11.926;2023-04-23T04:55:43;7.67;;;2.50;;
21697;SDS011;11010;49.548;11.926;2023-04-23T04:58:10;8.37;;;3.00;;
21697;SDS011;11010;49.548;11.926;2023-04-23T05:00:37;8.53;;;2.60;;
21697;SDS011;11010;49.548;11.926;2023-04-23T05:03:05;9.03;;;2.90;;
21697;SDS011;11010;49.548;11.926;2023-04-23T05:05:33;8.03;;;2.50;;
21697;SDS011;11010;49.548;11.926;2023-04-23T05:08:03;8.93;;;2.70;;
21697;SDS011;11010;49.548;11.926;2023-04-23T05:10:30;7.30;;;2.37;;
21697;SDS011;11010;49.548;11.926;2023-04-23T05:12:58;9.10;;;2.70;;
21697;SDS011;11010;49.548;11.926;2023-04-23T05:15:26;7.97;;;2.80;;
21697;SDS011;11010;49.548;11.926;2023-04-23T05:17:53;7.83;;;2.47;;
21697;SDS011;11010;49.548;11.926;2023-04-23T05:20:20;7.40;;;2.53;;
21697;SDS011;11010;49.548;11.926;2023-04-23T05:22:48;8.17;;;2.50;;
21697;SDS011;11010;49.548;11.926;2023-04-23T05:25:15;8.30;;;2.70;;
21697;SDS011;11010;49.548;11.926;2023-04-23T05:27:42;7.97;;;2.50;;
21697;SDS011;11010;49.548;11.926;2023-04-23T05:30:09;8.47;;;2.50;;
21697;SDS011;11010;49.548;11.926;2023-04-23T05:32:37;8.90;;;2.60;;
21697;SDS011;11010;49.548;11.926;2023-04-23T05:35:05;7.37;;;2.20;;
21697;SDS011;11010;49.548;11.926;2023-04-23T05:37:32;8.20;;;2.40;;
21697;SDS011;11010;49.548;11.926;2023-04-23T05:40:00;9.73;;;4.57;;
21697;SDS011;11010;49.548;11.926;2023-04-23T05:42:28;12.53;;;6.43;;
21697;SDS011;11010;49.548;11.926;2023-04-23T05:44:55;9.03;;;3.00;;
21697;SDS011;11010;49.548;11.926;2023-04-23T05:47:22;7.80;;;2.50;;
21697;SDS011;11010;49.548;11.926;2023-04-23T05:49:49;8.40;;;2.50;;
21697;SDS011;11010;49.548;11.926;2023-04-23T05:52:17;9.07;;;2.70;;
21697;SDS011;11010;49.548;11.926;2023-04-23T05:54:44;9.10;;;3.00;;
21697;SDS011;11010;49.548;11.926;2023-04-23T05:57:11;8.47;;;2.77;;
21697;SDS011;11010;49.548;11.926;2023-04-23T05:59:38;10.03;;;2.87;;
21697;SDS011;11010;49.548;11.926;2023-04-23T06:02:06;8.17;;;2.80;;
21697;SDS011;11010;49.548;11.926;2023-04-23T06:04:34;7.63;;;2.53;;
21697;SDS011;11010;49.548;11.926;2023-04-23T06:07:03;14.73;;;5.57;;
21697;SDS011;11010;49.548;11.926;2023-04-23T06:09:31;12.00;;;4.73;;
21697;SDS011;11010;49.548;11.926;2023-04-23T06:11:59;16.33;;;5.70;;
21697;SDS011;11010;49.548;11.926;2023-04-23T06:14:26;11.80;;;3.93;;
21697;SDS011;11010;49.548;11.926;2023-04-23T06:16:53;11.10;;;3.57;;
21697;SDS011;11010;49.548;11.926;2023-04-23T06:19:20;7.73;;;2.73;;
21697;SDS011;11010;49.548;11.926;2023-04-23T06:21:50;9.97;;;2.93;;
21697;SDS011;11010;49.548;11.926;2023-04-23T06:24:17;10.43;;;3.10;;
21697;SDS011;11010;49.548;11.926;2023-04-23T06:26:44;8.43;;;2.80;;
21697;SDS011;11010;49.548;11.926;2023-04-23T06:29:16;9.57;;;2.63;;
21697;SDS011;11010;49.548;11.926;2023-04-23T06:31:55;7.47;;;2.20;;
21697;SDS011;11010;49.548;11.926;2023-04-23T06:34:26;8.60;;;2.57;;
21697;SDS011;11010;49.548;11.926;2023-04-23T06:36:53;9.07;;;2.70;;
21697;SDS011;11010;49.548;11.926;2023-04-23T06:39:21;8.27;;;2.87;;
21697;SDS011;11010;49.548;11.926;2023-04-23T06:41:48;11.80;;;3.60;;
21697;SDS011;11010;49.548;11.926;2023-04-23T06:44:30;10.43;;;3.00;;
21697;SDS011;11010;49.548;11.926;2023-04-23T06:46:57;8.90;;;2.93;;
21697;SDS011;11010;49.548;11.926;2023-04-23T06:49:25;8.63;;;2.90;;
21697;SDS011;11010;49.548;11.926;2023-04-23T06:51:53;8.63;;;2.47;;
21697;SDS011;11010;49.548;11.926;2023-04-23T06:54:23;9.17;;;2.90;;
21697;SDS011;11010;49.548;11.926;2023-04-23T06:56:50;9.63;;;2.87;;
21697;SDS011;11010;49.548;11.926;2023-04-23T06:59:17;9.83;;;3.30;;
21697;SDS011;11010;49.548;11.926;2023-04-23T07:01:49;10.80;;;3.47;;
21697;SDS011;11010;49.548;11.926;2023-04-23T07:04:16;10.03;;;3.97;;
21697;SDS011;11010;49.548;11.926;2023-04-23T07:06:43;8.57;;;3.10;;
21697;SDS011;11010;49.548;11.926;2023-04-23T07:09:13;8.77;;;2.70;;
21697;SDS011;11010;49.548;11.926;2023-04-23T07:11:40;8.67;;;2.70;;
21697;SDS011;11010;49.548;11.926;2023-04-23T07:14:09;8.93;;;2.60;;
21697;SDS011;11010;49.548;11.926;2023-04-23T07:16:36;8.70;;;2.80;;
21697;SDS011;11010;49.548;11.926;2023-04-23T07:19:03;10.03;;;2.97;;
21697;SDS011;11010;49.548;11.926;2023-04-23T07:21:31;8.57;;;3.00;;
21697;SDS011;11010;49.548;11.926;2023-04-23T07:23:58;12.90;;;5.40;;
21697;SDS011;11010;49.548;11.926;2023-04-23T07:26:26;8.57;;;3.00;;
21697;SDS011;11010;49.548;11.926;2023-04-23T07:28:53;10.13;;;3.23;;
21697;SDS011;11010;49.548;11.926;2023-04-23T07:31:20;10.07;;;3.17;;
21697;SDS011;11010;49.548;11.926;2023-04-23T07:33:49;7.77;;;2.90;;
21697;SDS011;11010;49.548;11.926;2023-04-23T07:36:16;7.87;;;2.83;;
21697;SDS011;11010;49.548;11.926;2023-04-23T07:38:43;8.90;;;2.83;;
21697;SDS011;11010;49.548;11.926;2023-04-23T07:41:10;9.10;;;3.07;;
21697;SDS011;11010;49.548;11.926;2023-04-23T07:43:39;8.23;;;2.60;;
21697;SDS011;11010;49.548;11.926;2023-04-23T07:46:07;7.80;;;2.60;;
21697;SDS011;11010;49.548;11.926;2023-04-23T07:48:34;9.03;;;3.13;;
21697;SDS011;11010;49.548;11.926;2023-04-23T07:51:02;8.13;;;2.43;;
21697;SDS011;11010;49.548;11.926;2023-04-23T07:53:29;8.97;;;2.80;;
21697;SDS011;11010;49.548;11.926;2023-04-23T07:55:57;8.77;;;2.77;;
21697;SDS011;11010;49.548;11.926;2023-04-23T07:58:24;7.60;;;2.63;;
21697;SDS011;11010;49.548;11.926;2023-04-23T08:00:51;7.13;;;2.50;;
21697;SDS011;11010;49.548;11.926;2023-04-23T08:03:18;8.37;;;2.63;;
21697;SDS011;11010;49.548;11.926;2023-04-23T08:05:46;7.83;;;2.60;;
21697;SDS011;11010;49.548;11.926;2023-04-23T08:08:13;7.90;;;2.67;;
21697;SDS011;11010;49.548;11.926;2023-04-23T08:10:40;7.97;;;2.43;;
21697;SDS011;11010;49.548;11.926;2023-04-23T08:13:07;8.63;;;2.67;;
21697;SDS011;11010;49.548;11.926;2023-04-23T08:15:35;7.30;;;2.40;;
21697;SDS011;11010;49.548;11.926;2023-04-23T08:18:02;9.37;;;2.80;;
21697;SDS011;11010;49.548;11.926;2023-04-23T08:20:30;8.80;;;2.60;;
21697;SDS011;11010;49.548;11.926;2023-04-23T08:23:00;8.30;;;2.67;;
21697;SDS011;11010;49.548;11.926;2023-04-23T08:25:27;7.43;;;2.20;;
21697;SDS011;11010;49.548;11.926;2023-04-23T08:27:54;10.03;;;3.20;;
21697;SDS011;11010;49.548;11.926;2023-04-23T08:30:21;8.37;;;3.00;;
21697;SDS011;11010;49.548;11.926;2023-04-23T08:32:49;7.50;;;2.80;;
21697;SDS011;11010;49.548;11.926;2023-04-23T08:35:19;8.97;;;2.90;;
21697;SDS011;11010;49.548;11.926;2023-04-23T08:37:47;7.27;;;2.67;;
21697;SDS011;11010;49.548;11.926;2023-04-23T08:40:14;8.77;;;3.30;;
21697;SDS011;11010;49.548;11.926;2023-04-23T08:42:49;8.30;;;2.70;;
21697;SDS011;11010;49.548;11.926;2023-04-23T08:45:23;7.80;;;2.80;;
21697;SDS011;11010;49.548;11.926;2023-04-23T08:47:52;8.10;;;2.93;;
21697;SDS011;11010;49.548;11.926;2023-04-23T08:50:28;9.13;;;2.80;;
21697;SDS011;11010;49.548;11.926;2023-04-23T08:52:56;7.80;;;2.73;;
21697;SDS011;11010;49.548;11.926;2023-04-23T08:55:24;7.03;;;2.50;;
21697;SDS011;11010;49.548;11.926;2023-04-23T08:57:53;8.17;;;2.70;;
21697;SDS011;11010;49.548;11.926;2023-04-23T09:00:20;6.70;;;2.20;;
21697;SDS011;11010;49.548;11.926;2023-04-23T09:02:51;8.07;;;2.30;;
21697;SDS011;11010;49.548;11.926;2023-04-23T09:05:19;8.57;;;2.50;;
21697;SDS011;11010;49.548;11.926;2023-04-23T09:07:46;8.87;;;2.67;;
21697;SDS011;11010;49.548;11.926;2023-04-23T09:10:13;6.70;;;2.20;;
21697;SDS011;11010;49.548;11.926;2023-04-23T09:12:44;6.90;;;2.10;;
21697;SDS011;11010;49.548;11.926;2023-04-23T09:15:12;7.57;;;2.27;;
21697;SDS011;11010;49.548;11.926;2023-04-23T09:17:42;8.03;;;2.40;;
21697;SDS011;11010;49.548;11.926;2023-04-23T09:20:11;7.17;;;2.10;;
21697;SDS011;11010;49.548;11.926;2023-04-23T09:22:47;6.73;;;2.03;;
21697;SDS011;11010;49.548;11.926;2023-04-23T09:25:18;6.87;;;2.20;;
21697;SDS011;11010;49.548;11.926;2023-04-23T09:27:46;6.17;;;1.97;;
21697;SDS011;11010;49.548;11.926;2023-04-23T09:30:14;6.50;;;1.97;;
21697;SDS011;11010;49.548;11.926;2023-04-23T09:32:43;6.67;;;1.90;;
21697;SDS011;11010;49.548;11.926;2023-04-23T09:35:15;7.50;;;2.03;;
21697;SDS011;11010;49.548;11.926;2023-04-23T09:37:45;9.93;;;3.33;;
21697;SDS011;11010;49.548;11.926;2023-04-23T09:40:15;6.37;;;2.00;;
21697;SDS011;11010;49.548;11.926;2023-04-23T09:42:47;8.20;;;2.33;;
21697;SDS011;11010;49.548;11.926;2023-04-23T09:45:15;6.70;;;1.70;;
21697;SDS011;11010;49.548;11.926;2023-04-23T09:50:18;7.40;;;2.23;;
21697;SDS011;11010;49.548;11.926;2023-04-23T09:52:52;6.73;;;1.97;;
21697;SDS011;11010;49.548;11.926;2023-04-23T09:55:28;7.23;;;2.17;;
21697;SDS011;11010;49.548;11.926;2023-04-23T09:57:57;8.60;;;2.07;;
21697;SDS011;11010;49.548;11.926;2023-04-23T10:00:24;5.93;;;1.70;;
21697;SDS011;11010;49.548;11.926;2023-04-23T10:02:54;6.93;;;1.90;;
21697;SDS011;11010;49.548;11.926;2023-04-23T10:05:22;6.97;;;2.03;;
21697;SDS011;11010;49.548;11.926;2023-04-23T10:07:55;6.57;;;1.67;;
21697;SDS011;11010;49.548;11.926;2023-04-23T10:10:25;7.33;;;2.00;;
21697;SDS011;11010;49.548;11.926;2023-04-23T10:12:53;6.93;;;1.80;;
21697;SDS011;11010;49.548;11.926;2023-04-23T10:15:25;6.13;;;1.77;;
21697;SDS011;11010;49.548;11.926;2023-04-23T10:17:53;6.90;;;1.80;;
21697;SDS011;11010;49.548;11.926;2023-04-23T10:20:21;6.63;;;1.80;;
21697;SDS011;11010;49.548;11.926;2023-04-23T10:22:49;7.50;;;1.80;;
21697;SDS011;11010;49.548;11.926;2023-04-23T10:25:19;5.67;;;1.50;;
21697;SDS011;11010;49.548;11.926;2023-04-23T10:27:48;6.60;;;1.80;;
21697;SDS011;11010;49.548;11.926;2023-04-23T10:30:20;6.67;;;1.90;;
21697;SDS011;11010;49.548;11.926;2023-04-23T10:32:49;6.47;;;1.70;;
21697;SDS011;11010;49.548;11.926;2023-04-23T10:35:17;6.77;;;1.87;;
21697;SDS011;11010;49.548;11.926;2023-04-23T10:37:44;6.87;;;1.80;;
21697;SDS011;11010;49.548;11.926;2023-04-23T10:40:15;5.73;;;1.70;;
21697;SDS011;11010;49.548;11.926;2023-04-23T10:42:47;6.10;;;1.90;;
21697;SDS011;11010;49.548;11.926;2023-04-23T10:45:16;6.70;;;1.77;;
21697;SDS011;11010;49.548;11.926;2023-04-23T10:47:51;7.07;;;1.80;;
21697;SDS011;11010;49.548;11.926;2023-04-23T10:50:24;5.83;;;1.70;;
21697;SDS011;11010;49.548;11.926;2023-04-23T10:52:53;6.03;;;1.70;;
21697;SDS011;11010;49.548;11.926;2023-04-23T10:55:24;6.07;;;1.80;;
21697;SDS011;11010;49.548;11.926;2023-04-23T10:58:02;7.67;;;1.83;;
21697;SDS011;11010;49.548;11.926;2023-04-23T11:06:20;7.97;;;2.10;;
21697;SDS011;11010;49.548;11.926;2023-04-23T11:09:28;5.17;;;1.43;;
21697;SDS011;11010;49.548;11.926;2023-04-23T11:11:57;8.27;;;1.87;;
21697;SDS011;11010;49.548;11.926;2023-04-23T11:14:41;6.67;;;1.77;;
21697;SDS011;11010;49.548;11.926;2023-04-23T11:17:11;6.27;;;1.80;;
21697;SDS011;11010;49.548;11.926;2023-04-23T11:19:39;8.07;;;1.90;;
21697;SDS011;11010;49.548;11.926;2023-04-23T11:22:12;7.93;;;2.10;;
21697;SDS011;11010;49.548;11.926;2023-04-23T11:24:45;7.47;;;1.77;;
21697;SDS011;11010;49.548;11.926;2023-04-23T11:27:16;6.60;;;1.80;;
21697;SDS011;11010;49.548;11.926;2023-04-23T11:29:45;7.30;;;2.00;;
21697;SDS011;11010;49.548;11.926;2023-04-23T11:32:14;7.17;;;2.00;;
21697;SDS011;11010;49.548;11.926;2023-04-23T11:34:43;5.33;;;1.57;;
21697;SDS011;11010;49.548;11.926;2023-04-23T11:37:15;6.50;;;1.90;;
21697;SDS011;11010;49.548;11.926;2023-04-23T11:39:44;6.10;;;1.80;;
21697;SDS011;11010;49.548;11.926;2023-04-23T11:42:13;6.40;;;1.83;;
21697;SDS011;11010;49.548;11.926;2023-04-23T11:44:42;5.43;;;1.70;;
21697;SDS011;11010;49.548;11.926;2023-04-23T11:47:11;5.20;;;1.50;;
21697;SDS011;11010;49.548;11.926;2023-04-23T11:49:39;6.40;;;1.60;;
21697;SDS011;11010;49.548;11.926;2023-04-23T11:52:09;7.20;;;1.93;;
21697;SDS011;11010;49.548;11.926;2023-04-23T11:54:39;6.70;;;1.83;;
21697;SDS011;11010;49.548;11.926;2023-04-23T11:57:07;6.65;;;1.90;;
21697;SDS011;11010;49.548;11.926;2023-04-23T11:59:35;6.40;;;1.73;;
21697;SDS011;11010;49.548;11.926;2023-04-23T12:02:03;6.13;;;1.60;;
21697;SDS011;11010;49.548;11.926;2023-04-23T12:04:30;6.57;;;1.65;;
21697;SDS011;11010;49.548;11.926;2023-04-23T12:06:59;7.10;;;1.80;;
21697;SDS011;11010;49.548;11.926;2023-04-23T12:09:35;6.23;;;1.80;;
21697;SDS011;11010;49.548;11.926;2023-04-23T12:12:03;6.13;;;1.80;;
21697;SDS011;11010;49.548;11.926;2023-04-23T12:14:31;5.07;;;1.45;;
21697;SDS011;11010;49.548;11.926;2023-04-23T12:17:07;7.53;;;1.70;;
21697;SDS011;11010;49.548;11.926;2023-04-23T12:19:36;7.05;;;1.88;;
21697;SDS011;11010;49.548;11.926;2023-04-23T12:22:06;7.50;;;1.80;;
21697;SDS011;11010;49.548;11.926;2023-04-23T12:24:49;5.82;;;1.52;;
21697;SDS011;11010;49.548;11.926;2023-04-23T12:27:20;6.28;;;1.65;;
21697;SDS011;11010;49.548;11.926;2023-04-23T12:29:48;5.22;;;1.48;;
21697;SDS011;11010;49.548;11.926;2023-04-23T12:32:24;5.47;;;1.63;;
21697;SDS011;11010;49.548;11.926;2023-04-23T12:34:53;6.30;;;1.70;;
21697;SDS011;11010;49.548;11.926;2023-04-23T12:37:24;5.85;;;1.42;;
21697;SDS011;11010;49.548;11.926;2023-04-23T12:39:52;7.38;;;1.63;;
21697;SDS011;11010;49.548;11.926;2023-04-23T12:42:22;6.95;;;1.75;;
21697;SDS011;11010;49.548;11.926;2023-04-23T12:44:50;5.45;;;1.40;;
21697;SDS011;11010;49.548;11.926;2023-04-23T12:47:17;5.07;;;1.40;;
21697;SDS011;11010;49.548;11.926;2023-04-23T12:49:47;5.10;;;1.48;;
21697;SDS011;11010;49.548;11.926;2023-04-23T12:52:18;5.75;;;1.50;;
21697;SDS011;11010;49.548;11.926;2023-04-23T12:54:46;5.15;;;1.25;;
21697;SDS011;11010;49.548;11.926;2023-04-23T12:57:17;4.85;;;1.25;;
21697;SDS011;11010;49.548;11.926;2023-04-23T12:59:48;4.43;;;1.20;;
21697;SDS011;11010;49.548;11.926;2023-04-23T13:02:16;5.00;;;1.50;;
21697;SDS011;11010;49.548;11.926;2023-04-23T13:04:43;5.72;;;1.50;;
21697;SDS011;11010;49.548;11.926;2023-04-23T13:07:10;6.18;;;1.50;;
21697;SDS011;11010;49.548;11.926;2023-04-23T13:09:37;4.97;;;1.42;;
21697;SDS011;11010;49.548;11.926;2023-04-23T13:12:05;5.15;;;1.50;;
21697;SDS011;11010;49.548;11.926;2023-04-23T13:14:32;5.72;;;1.50;;
21697;SDS011;11010;49.548;11.926;2023-04-23T13:16:59;6.28;;;1.58;;
21697;SDS011;11010;49.548;11.926;2023-04-23T13:19:26;5.03;;;1.33;;
21697;SDS011;11010;49.548;11.926;2023-04-23T13:21:53;4.20;;;1.20;;
21697;SDS011;11010;49.548;11.926;2023-04-23T13:24:21;6.35;;;1.58;;
21697;SDS011;11010;49.548;11.926;2023-04-23T13:26:48;5.57;;;1.30;;
21697;SDS011;11010;49.548;11.926;2023-04-23T13:29:15;4.80;;;1.30;;
21697;SDS011;11010;49.548;11.926;2023-04-23T13:31:42;5.10;;;1.30;;
21697;SDS011;11010;49.548;11.926;2023-04-23T13:34:09;3.65;;;1.20;;
21697;SDS011;11010;49.548;11.926;2023-04-23T13:36:36;4.78;;;1.33;;
21697;SDS011;11010;49.548;11.926;2023-04-23T13:39:07;4.55;;;1.30;;
21697;SDS011;11010;49.548;11.926;2023-04-23T13:41:35;5.03;;;1.10;;
21697;SDS011;11010;49.548;11.926;2023-04-23T13:44:02;5.43;;;1.23;;
21697;SDS011;11010;49.548;11.926;2023-04-23T13:46:30;4.38;;;1.13;;
21697;SDS011;11010;49.548;11.926;2023-04-23T13:48:57;5.40;;;1.30;;
21697;SDS011;11010;49.548;11.926;2023-04-23T13:51:26;4.47;;;1.27;;
21697;SDS011;11010;49.548;11.926;2023-04-23T13:54:01;4.88;;;1.20;;
21697;SDS011;11010;49.548;11.926;2023-04-23T13:56:28;5.70;;;1.38;;
21697;SDS011;11010;49.548;11.926;2023-04-23T13:58:56;4.20;;;1.23;;
21697;SDS011;11010;49.548;11.926;2023-04-23T14:01:45;5.97;;;1.38;;
21697;SDS011;11010;49.548;11.926;2023-04-23T14:04:16;5.13;;;1.30;;
21697;SDS011;11010;49.548;11.926;2023-04-23T14:06:44;5.30;;;1.20;;
21697;SDS011;11010;49.548;11.926;2023-04-23T14:09:11;6.00;;;1.48;;
21697;SDS011;11010;49.548;11.926;2023-04-23T14:11:38;5.13;;;1.20;;
21697;SDS011;11010;49.548;11.926;2023-04-23T14:14:07;4.78;;;1.20;;
21697;SDS011;11010;49.548;11.926;2023-04-23T14:16:34;3.00;;;0.98;;
21697;SDS011;11010;49.548;11.926;2023-04-23T14:19:01;5.38;;;1.30;;
21697;SDS011;11010;49.548;11.926;2023-04-23T14:21:28;5.40;;;1.30;;
21697;SDS011;11010;49.548;11.926;2023-04-23T14:24:08;3.78;;;1.13;;
21697;SDS011;11010;49.548;11.926;2023-04-23T14:26:42;6.15;;;1.50;;
21697;SDS011;11010;49.548;11.926;2023-04-23T14:31:48;5.85;;;1.42;;
21697;SDS011;11010;49.548;11.926;2023-04-23T14:34:15;5.35;;;1.45;;
21697;SDS011;11010;49.548;11.926;2023-04-23T14:36:42;4.85;;;1.30;;
21697;SDS011;11010;49.548;11.926;2023-04-23T14:39:11;5.20;;;1.30;;
21697;SDS011;11010;49.548;11.926;2023-04-23T14:41:38;4.47;;;1.27;;
21697;SDS011;11010;49.548;11.926;2023-04-23T14:44:06;4.60;;;1.30;;
21697;SDS011;11010;49.548;11.926;2023-04-23T14:46:36;6.82;;;1.40;;
21697;SDS011;11010;49.548;11.926;2023-04-23T14:49:03;5.50;;;1.40;;
21697;SDS011;11010;49.548;11.926;2023-04-23T14:51:31;6.10;;;1.30;;
21697;SDS011;11010;49.548;11.926;2023-04-23T14:53:59;4.78;;;1.40;;